sensor_id;sensor_type;location;lat;lon;timestamp;temperature;humidity
46139;DHT22;32398;49.112;8.598;2023-05-07T00:00:36;18.30;72.20
46139;DHT22;32398;49.112;8.598;2023-05-07T00:03:03;18.20;72.30
46139;DHT22;32398;49.112;8.598;2023-05-07T00:05:29;18.20;72.40
46139;DHT22;32398;49.112;8.598;2023-05-07T00:07:56;18.20;72.60
46139;DHT22;32398;49.112;8.598;2023-05-07T00:10:22;18.20;72.60
46139;DHT22;32398;49.112;8.598;2023-05-07T00:12:50;18.20;72.70
46139;DHT22;32398;49.112;8.598;2023-05-07T00:15:17;18.10;72.70
46139;DHT22;32398;49.112;8.598;2023-05-07T00:17:43;18.10;72.80
46139;DHT22;32398;49.112;8.598;2023-05-07T00:20:10;18.10;72.90
46139;DHT22;32398;49.112;8.598;2023-05-07T00:22:37;18.10;72.90
46139;DHT22;32398;49.112;8.598;2023-05-07T00:25:04;18.00;72.90
46139;DHT22;32398;49.112;8.598;2023-05-07T00:27:30;18.00;73.00
46139;DHT22;32398;49.112;8.598;2023-05-07T00:29:59;17.90;73.10
46139;DHT22;32398;49.112;8.598;2023-05-07T00:32:25;18.00;73.20
46139;DHT22;32398;49.112;8.598;2023-05-07T00:34:52;17.90;73.20
46139;DHT22;32398;49.112;8.598;2023-05-07T00:37:18;17.90;73.30
46139;DHT22;32398;49.112;8.598;2023-05-07T00:39:45;17.90;73.40
46139;DHT22;32398;49.112;8.598;2023-05-07T00:42:11;17.80;73.40
46139;DHT22;32398;49.112;8.598;2023-05-07T00:44:38;17.80;73.50
46139;DHT22;32398;49.112;8.598;2023-05-07T00:47:06;17.80;73.70
46139;DHT22;32398;49.112;8.598;2023-05-07T00:49:34;17.70;73.70
46139;DHT22;32398;49.112;8.598;2023-05-07T00:52:02;17.80;73.90
46139;DHT22;32398;49.112;8.598;2023-05-07T00:54:28;17.70;73.90
46139;DHT22;32398;49.112;8.598;2023-05-07T00:56:55;17.70;73.90
46139;DHT22;32398;49.112;8.598;2023-05-07T00:59:24;17.60;73.90
46139;DHT22;32398;49.112;8.598;2023-05-07T01:01:50;17.60;74.00
46139;DHT22;32398;49.112;8.598;2023-05-07T01:04:19;17.60;74.00
46139;DHT22;32398;49.112;8.598;2023-05-07T01:06:45;17.60;74.10
46139;DHT22;32398;49.112;8.598;2023-05-07T01:09:12;17.60;74.10
46139;DHT22;32398;49.112;8.598;2023-05-07T01:11:39;17.50;74.20
46139;DHT22;32398;49.112;8.598;2023-05-07T01:14:06;17.50;74.20
46139;DHT22;32398;49.112;8.598;2023-05-07T01:16:33;17.50;74.30
46139;DHT22;32398;49.112;8.598;2023-05-07T01:19:00;17.50;74.50
46139;DHT22;32398;49.112;8.598;2023-05-07T01:21:27;17.40;74.30
46139;DHT22;32398;49.112;8.598;2023-05-07T01:24:00;17.40;74.40
46139;DHT22;32398;49.112;8.598;2023-05-07T01:26:27;17.40;74.40
46139;DHT22;32398;49.112;8.598;2023-05-07T01:28:53;17.40;74.50
46139;DHT22;32398;49.112;8.598;2023-05-07T01:31:20;17.30;74.50
46139;DHT22;32398;49.112;8.598;2023-05-07T01:33:46;17.30;74.60
46139;DHT22;32398;49.112;8.598;2023-05-07T01:36:14;17.30;74.60
46139;DHT22;32398;49.112;8.598;2023-05-07T01:38:42;17.30;74.70
46139;DHT22;32398;49.112;8.598;2023-05-07T01:41:10;17.30;74.80
46139;DHT22;32398;49.112;8.598;2023-05-07T01:43:37;17.20;74.80
46139;DHT22;32398;49.112;8.598;2023-05-07T01:46:04;17.20;74.90
46139;DHT22;32398;49.112;8.598;2023-05-07T01:48:31;17.20;75.00
46139;DHT22;32398;49.112;8.598;2023-05-07T01:50:58;17.20;75.10
46139;DHT22;32398;49.112;8.598;2023-05-07T01:53:26;17.20;75.10
46139;DHT22;32398;49.112;8.598;2023-05-07T01:55:53;17.10;75.20
46139;DHT22;32398;49.112;8.598;2023-05-07T01:58:21;17.10;75.20
46139;DHT22;32398;49.112;8.598;2023-05-07T02:00:47;17.10;75.30
46139;DHT22;32398;49.112;8.598;2023-05-07T02:03:14;17.10;75.40
46139;DHT22;32398;49.112;8.598;2023-05-07T02:05:40;17.10;75.50
46139;DHT22;32398;49.112;8.598;2023-05-07T02:08:07;17.00;75.40
46139;DHT22;32398;49.112;8.598;2023-05-07T02:10:34;17.00;75.50
46139;DHT22;32398;49.112;8.598;2023-05-07T02:13:01;17.00;75.60
46139;DHT22;32398;49.112;8.598;2023-05-07T02:15:29;17.00;75.80
46139;DHT22;32398;49.112;8.598;2023-05-07T02:17:59;17.00;75.80
46139;DHT22;32398;49.112;8.598;2023-05-07T02:20:26;17.00;76.00
46139;DHT22;32398;49.112;8.598;2023-05-07T02:22:52;16.90;76.00
46139;DHT22;32398;49.112;8.598;2023-05-07T02:25:19;16.90;76.10
46139;DHT22;32398;49.112;8.598;2023-05-07T02:27:45;16.90;76.20
46139;DHT22;32398;49.112;8.598;2023-05-07T02:30:12;16.90;76.40
46139;DHT22;32398;49.112;8.598;2023-05-07T02:32:40;16.80;76.40
46139;DHT22;32398;49.112;8.598;2023-05-07T02:35:07;16.80;76.50
46139;DHT22;32398;49.112;8.598;2023-05-07T02:37:33;16.80;76.60
46139;DHT22;32398;49.112;8.598;2023-05-07T02:40:00;16.80;76.70
46139;DHT22;32398;49.112;8.598;2023-05-07T02:42:28;16.70;76.70
46139;DHT22;32398;49.112;8.598;2023-05-07T02:44:55;16.70;76.90
46139;DHT22;32398;49.112;8.598;2023-05-07T02:47:21;16.70;76.90
46139;DHT22;32398;49.112;8.598;2023-05-07T02:49:49;16.70;77.00
46139;DHT22;32398;49.112;8.598;2023-05-07T02:52:16;16.70;77.10
46139;DHT22;32398;49.112;8.598;2023-05-07T02:54:42;16.70;77.20
46139;DHT22;32398;49.112;8.598;2023-05-07T02:57:09;16.60;77.20
46139;DHT22;32398;49.112;8.598;2023-05-07T02:59:35;16.60;77.20
46139;DHT22;32398;49.112;8.598;2023-05-07T03:02:02;16.60;77.20
46139;DHT22;32398;49.112;8.598;2023-05-07T03:04:28;16.60;77.30
46139;DHT22;32398;49.112;8.598;2023-05-07T03:06:56;16.60;77.40
46139;DHT22;32398;49.112;8.598;2023-05-07T03:09:23;16.60;77.40
46139;DHT22;32398;49.112;8.598;2023-05-07T03:11:49;16.50;77.40
46139;DHT22;32398;49.112;8.598;2023-05-07T03:14:16;16.50;77.50
46139;DHT22;32398;49.112;8.598;2023-05-07T03:16:42;16.50;77.60
46139;DHT22;32398;49.112;8.598;2023-05-07T03:19:09;16.50;77.60
46139;DHT22;32398;49.112;8.598;2023-05-07T03:21:35;16.50;77.70
46139;DHT22;32398;49.112;8.598;2023-05-07T03:24:04;16.50;77.80
46139;DHT22;32398;49.112;8.598;2023-05-07T03:26:30;16.40;77.80
46139;DHT22;32398;49.112;8.598;2023-05-07T03:28:57;16.40;77.80
46139;DHT22;32398;49.112;8.598;2023-05-07T03:31:23;16.40;77.80
46139;DHT22;32398;49.112;8.598;2023-05-07T03:33:50;16.30;77.80
46139;DHT22;32398;49.112;8.598;2023-05-07T03:36:17;16.30;77.90
46139;DHT22;32398;49.112;8.598;2023-05-07T03:38:44;16.30;77.90
46139;DHT22;32398;49.112;8.598;2023-05-07T03:41:12;16.30;78.00
46139;DHT22;32398;49.112;8.598;2023-05-07T03:43:38;16.30;78.10
46139;DHT22;32398;49.112;8.598;2023-05-07T03:46:05;16.20;78.00
46139;DHT22;32398;49.112;8.598;2023-05-07T03:48:31;16.30;78.10
46139;DHT22;32398;49.112;8.598;2023-05-07T03:50:58;16.20;78.10
46139;DHT22;32398;49.112;8.598;2023-05-07T03:53:25;16.20;78.10
46139;DHT22;32398;49.112;8.598;2023-05-07T03:55:51;16.20;78.10
46139;DHT22;32398;49.112;8.598;2023-05-07T03:58:19;16.20;78.10
46139;DHT22;32398;49.112;8.598;2023-05-07T04:00:45;16.20;78.10
46139;DHT22;32398;49.112;8.598;2023-05-07T04:03:12;16.10;78.00
46139;DHT22;32398;49.112;8.598;2023-05-07T04:05:39;16.10;78.00
46139;DHT22;32398;49.112;8.598;2023-05-07T04:08:05;16.10;78.10
46139;DHT22;32398;49.112;8.598;2023-05-07T04:10:32;16.10;78.10
46139;DHT22;32398;49.112;8.598;2023-05-07T04:12:59;16.10;78.20
46139;DHT22;32398;49.112;8.598;2023-05-07T04:15:26;16.10;78.20
46139;DHT22;32398;49.112;8.598;2023-05-07T04:17:53;16.00;78.20
46139;DHT22;32398;49.112;8.598;2023-05-07T04:20:20;16.00;78.20
46139;DHT22;32398;49.112;8.598;2023-05-07T04:22:46;16.00;78.30
46139;DHT22;32398;49.112;8.598;2023-05-07T04:25:13;16.00;78.30
46139;DHT22;32398;49.112;8.598;2023-05-07T04:27:39;16.00;78.30
46139;DHT22;32398;49.112;8.598;2023-05-07T04:30:06;16.00;78.40
46139;DHT22;32398;49.112;8.598;2023-05-07T04:32:34;16.00;78.40
46139;DHT22;32398;49.112;8.598;2023-05-07T04:35:01;15.90;78.40
46139;DHT22;32398;49.112;8.598;2023-05-07T04:37:28;15.90;78.40
46139;DHT22;32398;49.112;8.598;2023-05-07T04:39:54;15.90;78.50
46139;DHT22;32398;49.112;8.598;2023-05-07T04:42:21;15.90;78.50
46139;DHT22;32398;49.112;8.598;2023-05-07T04:44:47;15.90;78.50
46139;DHT22;32398;49.112;8.598;2023-05-07T04:47:18;15.90;78.60
46139;DHT22;32398;49.112;8.598;2023-05-07T04:49:46;15.80;78.60
46139;DHT22;32398;49.112;8.598;2023-05-07T04:52:12;15.80;78.70
46139;DHT22;32398;49.112;8.598;2023-05-07T04:54:40;15.80;78.70
46139;DHT22;32398;49.112;8.598;2023-05-07T04:57:07;15.80;78.80
46139;DHT22;32398;49.112;8.598;2023-05-07T04:59:33;15.80;78.90
46139;DHT22;32398;49.112;8.598;2023-05-07T05:02:00;15.80;79.00
46139;DHT22;32398;49.112;8.598;2023-05-07T05:04:26;15.80;79.20
46139;DHT22;32398;49.112;8.598;2023-05-07T05:06:54;15.80;79.10
46139;DHT22;32398;49.112;8.598;2023-05-07T05:09:21;15.80;79.20
46139;DHT22;32398;49.112;8.598;2023-05-07T05:11:47;15.80;79.40
46139;DHT22;32398;49.112;8.598;2023-05-07T05:14:14;15.70;79.40
46139;DHT22;32398;49.112;8.598;2023-05-07T05:16:40;15.70;79.40
46139;DHT22;32398;49.112;8.598;2023-05-07T05:19:07;15.70;79.40
46139;DHT22;32398;49.112;8.598;2023-05-07T05:21:33;15.70;79.50
46139;DHT22;32398;49.112;8.598;2023-05-07T05:24:01;15.70;79.50
46139;DHT22;32398;49.112;8.598;2023-05-07T05:26:28;15.70;79.60
46139;DHT22;32398;49.112;8.598;2023-05-07T05:28:55;15.70;79.60
46139;DHT22;32398;49.112;8.598;2023-05-07T05:31:21;15.70;79.60
46139;DHT22;32398;49.112;8.598;2023-05-07T05:33:48;15.70;79.70
46139;DHT22;32398;49.112;8.598;2023-05-07T05:36:14;15.70;79.60
46139;DHT22;32398;49.112;8.598;2023-05-07T05:38:41;15.70;79.70
46139;DHT22;32398;49.112;8.598;2023-05-07T05:41:09;15.70;79.70
46139;DHT22;32398;49.112;8.598;2023-05-07T05:43:35;15.70;79.70
46139;DHT22;32398;49.112;8.598;2023-05-07T05:46:02;15.70;79.70
46139;DHT22;32398;49.112;8.598;2023-05-07T05:48:29;15.70;79.60
46139;DHT22;32398;49.112;8.598;2023-05-07T05:50:56;15.70;79.60
46139;DHT22;32398;49.112;8.598;2023-05-07T05:53:22;15.70;79.60
46139;DHT22;32398;49.112;8.598;2023-05-07T05:55:49;15.70;79.60
46139;DHT22;32398;49.112;8.598;2023-05-07T05:58:17;15.70;79.60
46139;DHT22;32398;49.112;8.598;2023-05-07T06:00:44;15.70;79.60
46139;DHT22;32398;49.112;8.598;2023-05-07T06:03:11;15.70;79.60
46139;DHT22;32398;49.112;8.598;2023-05-07T06:05:37;15.70;79.60
46139;DHT22;32398;49.112;8.598;2023-05-07T06:08:04;15.70;79.60
46139;DHT22;32398;49.112;8.598;2023-05-07T06:10:30;15.70;79.60
46139;DHT22;32398;49.112;8.598;2023-05-07T06:12:57;15.70;79.60
46139;DHT22;32398;49.112;8.598;2023-05-07T06:15:25;15.70;79.70
46139;DHT22;32398;49.112;8.598;2023-05-07T06:17:51;15.70;79.70
46139;DHT22;32398;49.112;8.598;2023-05-07T06:20:18;15.70;79.60
46139;DHT22;32398;49.112;8.598;2023-05-07T06:22:44;15.70;79.60
46139;DHT22;32398;49.112;8.598;2023-05-07T06:25:11;15.70;79.60
46139;DHT22;32398;49.112;8.598;2023-05-07T06:27:37;15.70;79.60
46139;DHT22;32398;49.112;8.598;2023-05-07T06:30:05;15.80;79.70
46139;DHT22;32398;49.112;8.598;2023-05-07T06:32:33;15.80;79.70
46139;DHT22;32398;49.112;8.598;2023-05-07T06:35:00;15.80;79.80
46139;DHT22;32398;49.112;8.598;2023-05-07T06:37:26;15.80;79.90
46139;DHT22;32398;49.112;8.598;2023-05-07T06:39:53;15.80;80.00
46139;DHT22;32398;49.112;8.598;2023-05-07T06:42:19;15.90;80.00
46139;DHT22;32398;49.112;8.598;2023-05-07T06:44:46;15.90;80.00
46139;DHT22;32398;49.112;8.598;2023-05-07T06:47:12;15.90;80.10
46139;DHT22;32398;49.112;8.598;2023-05-07T06:49:40;15.90;80.10
46139;DHT22;32398;49.112;8.598;2023-05-07T06:52:07;15.90;80.30
46139;DHT22;32398;49.112;8.598;2023-05-07T06:54:33;16.00;80.30
46139;DHT22;32398;49.112;8.598;2023-05-07T06:57:00;16.00;80.30
46139;DHT22;32398;49.112;8.598;2023-05-07T06:59:26;16.00;80.30
46139;DHT22;32398;49.112;8.598;2023-05-07T07:01:53;16.00;80.40
46139;DHT22;32398;49.112;8.598;2023-05-07T07:04:20;16.00;80.40
46139;DHT22;32398;49.112;8.598;2023-05-07T07:06:48;16.10;80.20
46139;DHT22;32398;49.112;8.598;2023-05-07T07:09:15;16.10;80.10
46139;DHT22;32398;49.112;8.598;2023-05-07T07:11:42;16.10;80.10
46139;DHT22;32398;49.112;8.598;2023-05-07T07:14:08;16.10;80.00
46139;DHT22;32398;49.112;8.598;2023-05-07T07:16:35;16.10;80.10
46139;DHT22;32398;49.112;8.598;2023-05-07T07:19:01;16.10;80.50
46139;DHT22;32398;49.112;8.598;2023-05-07T07:21:28;16.10;80.80
46139;DHT22;32398;49.112;8.598;2023-05-07T07:23:56;16.20;80.60
46139;DHT22;32398;49.112;8.598;2023-05-07T07:26:23;16.20;80.50
46139;DHT22;32398;49.112;8.598;2023-05-07T07:28:49;16.20;80.50
46139;DHT22;32398;49.112;8.598;2023-05-07T07:31:16;16.30;80.80
46139;DHT22;32398;49.112;8.598;2023-05-07T07:33:42;16.30;80.70
46139;DHT22;32398;49.112;8.598;2023-05-07T07:36:09;16.40;80.70
46139;DHT22;32398;49.112;8.598;2023-05-07T07:38:35;16.30;80.60
46139;DHT22;32398;49.112;8.598;2023-05-07T07:41:03;16.40;80.80
46139;DHT22;32398;49.112;8.598;2023-05-07T07:43:30;16.40;80.80
46139;DHT22;32398;49.112;8.598;2023-05-07T07:45:56;16.40;80.70
46139;DHT22;32398;49.112;8.598;2023-05-07T07:48:23;16.40;80.80
46139;DHT22;32398;49.112;8.598;2023-05-07T07:50:50;16.40;80.80
46139;DHT22;32398;49.112;8.598;2023-05-07T07:53:16;16.50;80.90
46139;DHT22;32398;49.112;8.598;2023-05-07T07:55:43;16.50;80.90
46139;DHT22;32398;49.112;8.598;2023-05-07T07:58:11;16.60;80.90
46139;DHT22;32398;49.112;8.598;2023-05-07T08:00:37;16.60;80.80
46139;DHT22;32398;49.112;8.598;2023-05-07T08:03:04;16.60;81.00
46139;DHT22;32398;49.112;8.598;2023-05-07T08:05:31;16.70;81.00
46139;DHT22;32398;49.112;8.598;2023-05-07T08:07:58;16.70;80.90
46139;DHT22;32398;49.112;8.598;2023-05-07T08:10:24;16.70;80.70
46139;DHT22;32398;49.112;8.598;2023-05-07T08:12:51;16.80;80.70
46139;DHT22;32398;49.112;8.598;2023-05-07T08:15:19;16.80;80.60
46139;DHT22;32398;49.112;8.598;2023-05-07T08:17:46;16.80;80.50
46139;DHT22;32398;49.112;8.598;2023-05-07T08:20:12;16.90;80.50
46139;DHT22;32398;49.112;8.598;2023-05-07T08:22:39;16.90;80.50
46139;DHT22;32398;49.112;8.598;2023-05-07T08:25:05;17.00;80.50
46139;DHT22;32398;49.112;8.598;2023-05-07T08:27:32;17.00;80.40
46139;DHT22;32398;49.112;8.598;2023-05-07T08:29:58;17.10;80.40
46139;DHT22;32398;49.112;8.598;2023-05-07T08:32:26;17.10;80.30
46139;DHT22;32398;49.112;8.598;2023-05-07T08:34:53;17.10;80.00
46139;DHT22;32398;49.112;8.598;2023-05-07T08:37:20;17.20;79.90
46139;DHT22;32398;49.112;8.598;2023-05-07T08:39:46;17.20;79.80
46139;DHT22;32398;49.112;8.598;2023-05-07T08:42:13;17.20;79.50
46139;DHT22;32398;49.112;8.598;2023-05-07T08:44:42;17.30;79.50
46139;DHT22;32398;49.112;8.598;2023-05-07T08:47:11;17.30;79.40
46139;DHT22;32398;49.112;8.598;2023-05-07T08:49:38;17.30;79.30
46139;DHT22;32398;49.112;8.598;2023-05-07T08:52:05;17.40;79.20
46139;DHT22;32398;49.112;8.598;2023-05-07T08:54:32;17.40;79.10
46139;DHT22;32398;49.112;8.598;2023-05-07T08:56:59;17.40;79.00
46139;DHT22;32398;49.112;8.598;2023-05-07T08:59:26;17.40;78.80
46139;DHT22;32398;49.112;8.598;2023-05-07T09:01:52;17.50;78.90
46139;DHT22;32398;49.112;8.598;2023-05-07T09:04:19;17.50;78.60
46139;DHT22;32398;49.112;8.598;2023-05-07T09:06:47;17.60;78.60
46139;DHT22;32398;49.112;8.598;2023-05-07T09:09:14;17.60;78.60
46139;DHT22;32398;49.112;8.598;2023-05-07T09:11:41;17.70;78.40
46139;DHT22;32398;49.112;8.598;2023-05-07T09:14:07;17.70;78.20
46139;DHT22;32398;49.112;8.598;2023-05-07T09:16:34;17.70;78.00
46139;DHT22;32398;49.112;8.598;2023-05-07T09:19:00;17.80;77.90
46139;DHT22;32398;49.112;8.598;2023-05-07T09:21:27;17.90;77.70
46139;DHT22;32398;49.112;8.598;2023-05-07T09:23:55;18.00;77.80
46139;DHT22;32398;49.112;8.598;2023-05-07T09:26:22;18.10;77.70
46139;DHT22;32398;49.112;8.598;2023-05-07T09:28:48;18.10;77.60
46139;DHT22;32398;49.112;8.598;2023-05-07T09:31:15;18.20;77.30
46139;DHT22;32398;49.112;8.598;2023-05-07T09:33:42;18.30;77.30
46139;DHT22;32398;49.112;8.598;2023-05-07T09:36:08;18.30;77.20
46139;DHT22;32398;49.112;8.598;2023-05-07T09:38:36;18.40;77.00
46139;DHT22;32398;49.112;8.598;2023-05-07T09:41:04;18.50;76.80
46139;DHT22;32398;49.112;8.598;2023-05-07T09:43:34;18.50;76.60
46139;DHT22;32398;49.112;8.598;2023-05-07T09:46:02;18.60;76.50
46139;DHT22;32398;49.112;8.598;2023-05-07T09:48:29;18.70;76.30
46139;DHT22;32398;49.112;8.598;2023-05-07T09:50:56;18.70;76.30
46139;DHT22;32398;49.112;8.598;2023-05-07T09:53:23;18.90;76.10
46139;DHT22;32398;49.112;8.598;2023-05-07T09:55:50;18.90;76.10
46139;DHT22;32398;49.112;8.598;2023-05-07T09:58:18;19.00;76.00
46139;DHT22;32398;49.112;8.598;2023-05-07T10:00:45;19.10;75.80
46139;DHT22;32398;49.112;8.598;2023-05-07T10:03:11;19.20;75.50
46139;DHT22;32398;49.112;8.598;2023-05-07T10:05:39;19.20;75.00
46139;DHT22;32398;49.112;8.598;2023-05-07T10:08:06;19.30;75.00
46139;DHT22;32398;49.112;8.598;2023-05-07T10:10:34;19.40;74.90
46139;DHT22;32398;49.112;8.598;2023-05-07T10:13:00;19.40;74.50
46139;DHT22;32398;49.112;8.598;2023-05-07T10:15:32;19.50;74.20
46139;DHT22;32398;49.112;8.598;2023-05-07T10:17:58;19.60;74.10
46139;DHT22;32398;49.112;8.598;2023-05-07T10:20:25;19.60;74.00
46139;DHT22;32398;49.112;8.598;2023-05-07T10:22:52;19.70;73.80
46139;DHT22;32398;49.112;8.598;2023-05-07T10:25:22;19.80;73.60
46139;DHT22;32398;49.112;8.598;2023-05-07T10:27:49;19.90;73.40
46139;DHT22;32398;49.112;8.598;2023-05-07T10:30:20;19.90;73.20
46139;DHT22;32398;49.112;8.598;2023-05-07T10:32:50;20.00;72.90
46139;DHT22;32398;49.112;8.598;2023-05-07T10:35:17;20.10;72.80
46139;DHT22;32398;49.112;8.598;2023-05-07T10:37:45;20.20;72.60
46139;DHT22;32398;49.112;8.598;2023-05-07T10:40:12;20.30;72.60
46139;DHT22;32398;49.112;8.598;2023-05-07T10:42:52;20.40;72.50
46139;DHT22;32398;49.112;8.598;2023-05-07T10:45:19;20.40;72.40
46139;DHT22;32398;49.112;8.598;2023-05-07T10:50:28;20.60;72.10
46139;DHT22;32398;49.112;8.598;2023-05-07T10:55:40;20.70;71.10
46139;DHT22;32398;49.112;8.598;2023-05-07T10:58:22;20.80;71.00
46139;DHT22;32398;49.112;8.598;2023-05-07T11:00:50;20.90;70.90
46139;DHT22;32398;49.112;8.598;2023-05-07T11:03:17;20.90;70.70
46139;DHT22;32398;49.112;8.598;2023-05-07T11:05:45;21.00;70.50
46139;DHT22;32398;49.112;8.598;2023-05-07T11:08:12;21.00;70.40
46139;DHT22;32398;49.112;8.598;2023-05-07T11:10:51;21.10;70.30
46139;DHT22;32398;49.112;8.598;2023-05-07T11:13:19;21.10;70.30
46139;DHT22;32398;49.112;8.598;2023-05-07T11:16:05;21.30;70.10
46139;DHT22;32398;49.112;8.598;2023-05-07T11:18:46;21.30;70.00
46139;DHT22;32398;49.112;8.598;2023-05-07T11:21:14;21.40;69.80
46139;DHT22;32398;49.112;8.598;2023-05-07T11:23:58;21.50;69.60
46139;DHT22;32398;49.112;8.598;2023-05-07T11:26:25;21.50;69.20
46139;DHT22;32398;49.112;8.598;2023-05-07T11:28:52;21.60;69.00
46139;DHT22;32398;49.112;8.598;2023-05-07T11:31:23;21.60;68.70
46139;DHT22;32398;49.112;8.598;2023-05-07T11:33:51;21.70;68.60
46139;DHT22;32398;49.112;8.598;2023-05-07T11:36:19;21.80;68.40
46139;DHT22;32398;49.112;8.598;2023-05-07T11:38:46;21.80;68.10
46139;DHT22;32398;49.112;8.598;2023-05-07T11:41:13;21.80;68.00
46139;DHT22;32398;49.112;8.598;2023-05-07T11:43:53;21.90;68.10
46139;DHT22;32398;49.112;8.598;2023-05-07T11:46:20;21.90;68.00
46139;DHT22;32398;49.112;8.598;2023-05-07T11:48:47;22.00;68.00
46139;DHT22;32398;49.112;8.598;2023-05-07T11:51:13;22.00;67.90
46139;DHT22;32398;49.112;8.598;2023-05-07T11:53:46;22.00;67.80
46139;DHT22;32398;49.112;8.598;2023-05-07T11:56:13;22.10;67.90
46139;DHT22;32398;49.112;8.598;2023-05-07T11:58:41;22.10;67.50
46139;DHT22;32398;49.112;8.598;2023-05-07T12:01:08;22.10;67.50
46139;DHT22;32398;49.112;8.598;2023-05-07T12:03:35;22.10;67.50
46139;DHT22;32398;49.112;8.598;2023-05-07T12:06:02;22.20;67.40
46139;DHT22;32398;49.112;8.598;2023-05-07T12:08:29;22.30;67.10
46139;DHT22;32398;49.112;8.598;2023-05-07T12:10:57;22.30;67.00
46139;DHT22;32398;49.112;8.598;2023-05-07T12:13:24;22.40;66.80
46139;DHT22;32398;49.112;8.598;2023-05-07T12:15:51;22.50;66.70
46139;DHT22;32398;49.112;8.598;2023-05-07T12:18:18;22.50;66.50
46139;DHT22;32398;49.112;8.598;2023-05-07T12:20:45;22.60;66.40
46139;DHT22;32398;49.112;8.598;2023-05-07T12:23:11;22.60;66.30
46139;DHT22;32398;49.112;8.598;2023-05-07T12:25:38;22.70;66.20
46139;DHT22;32398;49.112;8.598;2023-05-07T12:28:07;22.70;66.00
46139;DHT22;32398;49.112;8.598;2023-05-07T12:30:36;22.80;65.80
46139;DHT22;32398;49.112;8.598;2023-05-07T12:33:03;22.80;65.70
46139;DHT22;32398;49.112;8.598;2023-05-07T12:35:29;22.80;65.70
46139;DHT22;32398;49.112;8.598;2023-05-07T12:37:56;22.90;65.70
46139;DHT22;32398;49.112;8.598;2023-05-07T12:40:24;22.90;65.50
46139;DHT22;32398;49.112;8.598;2023-05-07T12:42:52;23.00;65.40
46139;DHT22;32398;49.112;8.598;2023-05-07T12:45:21;23.00;65.40
46139;DHT22;32398;49.112;8.598;2023-05-07T12:47:47;23.00;65.30
46139;DHT22;32398;49.112;8.598;2023-05-07T12:50:14;23.00;65.20
46139;DHT22;32398;49.112;8.598;2023-05-07T12:52:42;23.00;65.10
46139;DHT22;32398;49.112;8.598;2023-05-07T12:55:11;23.00;65.10
46139;DHT22;32398;49.112;8.598;2023-05-07T12:57:38;23.00;65.00
46139;DHT22;32398;49.112;8.598;2023-05-07T13:00:06;23.00;65.10
46139;DHT22;32398;49.112;8.598;2023-05-07T13:02:36;23.00;65.10
46139;DHT22;32398;49.112;8.598;2023-05-07T13:05:03;23.00;65.20
46139;DHT22;32398;49.112;8.598;2023-05-07T13:07:30;23.00;65.20
46139;DHT22;32398;49.112;8.598;2023-05-07T13:09:56;23.00;65.20
46139;DHT22;32398;49.112;8.598;2023-05-07T13:12:23;23.00;65.10
46139;DHT22;32398;49.112;8.598;2023-05-07T13:14:50;23.00;65.20
46139;DHT22;32398;49.112;8.598;2023-05-07T13:17:16;23.00;65.30
46139;DHT22;32398;49.112;8.598;2023-05-07T13:19:45;23.00;65.40
46139;DHT22;32398;49.112;8.598;2023-05-07T13:22:11;23.00;65.50
46139;DHT22;32398;49.112;8.598;2023-05-07T13:24:38;23.00;65.50
46139;DHT22;32398;49.112;8.598;2023-05-07T13:27:06;23.00;65.70
46139;DHT22;32398;49.112;8.598;2023-05-07T13:29:33;23.00;65.90
46139;DHT22;32398;49.112;8.598;2023-05-07T13:31:59;22.90;66.00
46139;DHT22;32398;49.112;8.598;2023-05-07T13:34:26;22.90;66.20
46139;DHT22;32398;49.112;8.598;2023-05-07T13:36:54;22.90;66.60
46139;DHT22;32398;49.112;8.598;2023-05-07T13:39:21;22.90;66.90
46139;DHT22;32398;49.112;8.598;2023-05-07T13:41:47;22.90;67.70
46139;DHT22;32398;49.112;8.598;2023-05-07T13:44:14;22.90;68.60
46139;DHT22;32398;49.112;8.598;2023-05-07T13:46:40;22.90;69.10
46139;DHT22;32398;49.112;8.598;2023-05-07T13:49:07;22.80;69.40
46139;DHT22;32398;49.112;8.598;2023-05-07T13:51:36;22.80;69.50
46139;DHT22;32398;49.112;8.598;2023-05-07T13:54:04;22.70;69.60
46139;DHT22;32398;49.112;8.598;2023-05-07T13:56:30;22.60;70.00
46139;DHT22;32398;49.112;8.598;2023-05-07T13:58:57;22.50;69.90
46139;DHT22;32398;49.112;8.598;2023-05-07T14:01:24;22.50;69.60
46139;DHT22;32398;49.112;8.598;2023-05-07T14:03:50;22.40;69.60
46139;DHT22;32398;49.112;8.598;2023-05-07T14:06:17;22.20;69.70
46139;DHT22;32398;49.112;8.598;2023-05-07T14:08:43;22.20;70.40
46139;DHT22;32398;49.112;8.598;2023-05-07T14:11:11;22.10;71.90
46139;DHT22;32398;49.112;8.598;2023-05-07T14:13:38;22.10;71.60
46139;DHT22;32398;49.112;8.598;2023-05-07T14:16:04;22.00;71.80
46139;DHT22;32398;49.112;8.598;2023-05-07T14:18:31;22.00;72.10
46139;DHT22;32398;49.112;8.598;2023-05-07T14:20:59;21.90;72.20
46139;DHT22;32398;49.112;8.598;2023-05-07T14:23:25;21.90;72.20
46139;DHT22;32398;49.112;8.598;2023-05-07T14:25:52;21.90;72.40
46139;DHT22;32398;49.112;8.598;2023-05-07T14:28:20;21.90;72.40
46139;DHT22;32398;49.112;8.598;2023-05-07T14:30:46;21.80;72.70
46139;DHT22;32398;49.112;8.598;2023-05-07T14:33:13;21.80;72.90
46139;DHT22;32398;49.112;8.598;2023-05-07T14:35:40;21.70;73.20
46139;DHT22;32398;49.112;8.598;2023-05-07T14:38:06;21.60;73.10
46139;DHT22;32398;49.112;8.598;2023-05-07T14:40:33;21.60;73.20
46139;DHT22;32398;49.112;8.598;2023-05-07T14:42:59;21.60;73.50
46139;DHT22;32398;49.112;8.598;2023-05-07T14:45:27;21.50;73.60
46139;DHT22;32398;49.112;8.598;2023-05-07T14:47:53;21.50;73.70
46139;DHT22;32398;49.112;8.598;2023-05-07T14:50:20;21.40;73.80
46139;DHT22;32398;49.112;8.598;2023-05-07T14:52:47;21.40;73.90
46139;DHT22;32398;49.112;8.598;2023-05-07T14:55:13;21.30;74.10
46139;DHT22;32398;49.112;8.598;2023-05-07T14:57:40;21.30;74.30
46139;DHT22;32398;49.112;8.598;2023-05-07T15:00:07;21.30;74.50
46139;DHT22;32398;49.112;8.598;2023-05-07T15:02:36;21.20;74.60
46139;DHT22;32398;49.112;8.598;2023-05-07T15:05:03;21.20;74.90
46139;DHT22;32398;49.112;8.598;2023-05-07T15:07:29;21.20;75.00
46139;DHT22;32398;49.112;8.598;2023-05-07T15:09:57;21.10;75.10
46139;DHT22;32398;49.112;8.598;2023-05-07T15:12:24;21.10;75.30
46139;DHT22;32398;49.112;8.598;2023-05-07T15:14:50;21.10;75.50
46139;DHT22;32398;49.112;8.598;2023-05-07T15:17:17;21.00;75.70
46139;DHT22;32398;49.112;8.598;2023-05-07T15:19:45;20.90;75.80
46139;DHT22;32398;49.112;8.598;2023-05-07T15:22:11;20.90;76.00
46139;DHT22;32398;49.112;8.598;2023-05-07T15:24:38;20.90;76.00
46139;DHT22;32398;49.112;8.598;2023-05-07T15:27:04;20.80;76.10
46139;DHT22;32398;49.112;8.598;2023-05-07T15:29:31;20.80;76.30
46139;DHT22;32398;49.112;8.598;2023-05-07T15:31:57;20.70;76.60
46139;DHT22;32398;49.112;8.598;2023-05-07T15:34:24;20.70;76.90